sensor_id;sensor_type;location;lat;lon;timestamp;P1;durP1;ratioP1;P2;durP2;ratioP2
32788;SDS011;19141;48.980;8.410;2022-10-17T04:22:50;4.70;;;2.97;;
32788;SDS011;19141;48.980;8.410;2022-10-17T04:25:16;3.58;;;2.63;;
32788;SDS011;19141;48.980;8.410;2022-10-17T04:27:44;3.95;;;2.53;;
32788;SDS011;19141;48.980;8.410;2022-10-17T04:30:11;8.95;;;2.17;;
32788;SDS011;19141;48.980;8.410;2022-10-17T04:32:37;6.00;;;2.45;;
32788;SDS011;19141;48.980;8.410;2022-10-17T04:35:18;4.57;;;2.47;;
32788;SDS011;19141;48.980;8.410;2022-10-17T04:37:48;4.07;;;2.40;;
32788;SDS011;19141;48.980;8.410;2022-10-17T04:42:41;6.05;;;2.22;;
32788;SDS011;19141;48.980;8.410;2022-10-17T04:45:09;3.38;;;2.20;;
32788;SDS011;19141;48.980;8.410;2022-10-17T04:47:35;4.32;;;2.42;;
32788;SDS011;19141;48.980;8.410;2022-10-17T04:50:01;4.32;;;2.20;;
32788;SDS011;19141;48.980;8.410;2022-10-17T04:52:31;4.72;;;2.22;;
32788;SDS011;19141;48.980;8.410;2022-10-17T04:54:56;5.03;;;2.08;;
32788;SDS011;19141;48.980;8.410;2022-10-17T04:57:22;2.70;;;1.90;;
32788;SDS011;19141;48.980;8.410;2022-10-17T04:59:59;3.70;;;2.20;;
32788;SDS011;19141;48.980;8.410;2022-10-17T05:02:44;3.17;;;1.85;;
32788;SDS011;19141;48.980;8.410;2022-10-17T05:05:09;4.47;;;2.35;;
32788;SDS011;19141;48.980;8.410;2022-10-17T05:07:38;3.03;;;2.00;;
32788;SDS011;19141;48.980;8.410;2022-10-17T05:10:10;3.80;;;2.13;;
32788;SDS011;19141;48.980;8.410;2022-10-17T05:12:35;7.63;;;2.38;;
32788;SDS011;19141;48.980;8.410;2022-10-17T05:15:03;10.10;;;2.00;;
32788;SDS011;19141;48.980;8.410;2022-10-17T05:17:29;4.32;;;2.33;;
32788;SDS011;19141;48.980;8.410;2022-10-17T05:19:54;5.00;;;1.92;;
32788;SDS011;19141;48.980;8.410;2022-10-17T05:22:21;2.15;;;1.58;;
32788;SDS011;19141;48.980;8.410;2022-10-17T05:24:47;5.20;;;1.85;;
32788;SDS011;19141;48.980;8.410;2022-10-17T05:27:12;3.65;;;1.83;;
32788;SDS011;19141;48.980;8.410;2022-10-17T05:29:38;3.70;;;1.70;;
32788;SDS011;19141;48.980;8.410;2022-10-17T05:32:18;4.10;;;2.17;;
32788;SDS011;19141;48.980;8.410;2022-10-17T05:34:44;5.05;;;2.13;;
32788;SDS011;19141;48.980;8.410;2022-10-17T05:37:10;3.08;;;1.80;;
32788;SDS011;19141;48.980;8.410;2022-10-17T05:39:36;4.10;;;1.92;;
32788;SDS011;19141;48.980;8.410;2022-10-17T05:42:03;1.92;;;1.73;;
32788;SDS011;19141;48.980;8.410;2022-10-17T05:44:28;4.22;;;2.25;;
32788;SDS011;19141;48.980;8.410;2022-10-17T05:46:57;3.33;;;2.10;;
32788;SDS011;19141;48.980;8.410;2022-10-17T05:49:23;4.53;;;2.10;;
32788;SDS011;19141;48.980;8.410;2022-10-17T05:51:48;3.90;;;2.00;;
32788;SDS011;19141;48.980;8.410;2022-10-17T05:54:14;3.90;;;2.38;;
32788;SDS011;19141;48.980;8.410;2022-10-17T05:56:39;4.85;;;2.40;;
32788;SDS011;19141;48.980;8.410;2022-10-17T05:59:04;4.13;;;1.85;;
32788;SDS011;19141;48.980;8.410;2022-10-17T06:01:41;1.75;;;1.50;;
32788;SDS011;19141;48.980;8.410;2022-10-17T06:04:07;2.35;;;1.80;;
32788;SDS011;19141;48.980;8.410;2022-10-17T06:06:34;4.68;;;2.25;;
32788;SDS011;19141;48.980;8.410;2022-10-17T06:09:00;5.68;;;1.85;;
32788;SDS011;19141;48.980;8.410;2022-10-17T06:11:30;3.92;;;2.50;;
32788;SDS011;19141;48.980;8.410;2022-10-17T06:13:57;2.87;;;1.93;;
32788;SDS011;19141;48.980;8.410;2022-10-17T06:16:24;1.85;;;1.52;;
32788;SDS011;19141;48.980;8.410;2022-10-17T06:18:50;3.63;;;2.40;;
32788;SDS011;19141;48.980;8.410;2022-10-17T06:21:20;5.70;;;2.30;;
32788;SDS011;19141;48.980;8.410;2022-10-17T06:23:49;3.03;;;1.90;;
32788;SDS011;19141;48.980;8.410;2022-10-17T06:26:29;4.10;;;2.05;;
32788;SDS011;19141;48.980;8.410;2022-10-17T06:28:55;2.00;;;1.65;;
32788;SDS011;19141;48.980;8.410;2022-10-17T06:31:21;5.20;;;2.13;;
32788;SDS011;19141;48.980;8.410;2022-10-17T06:33:47;3.28;;;2.08;;
32788;SDS011;19141;48.980;8.410;2022-10-17T06:36:13;3.92;;;2.47;;
32788;SDS011;19141;48.980;8.410;2022-10-17T06:38:39;4.38;;;2.40;;
32788;SDS011;19141;48.980;8.410;2022-10-17T06:41:12;5.00;;;2.47;;
32788;SDS011;19141;48.980;8.410;2022-10-17T06:46:42;2.85;;;2.33;;
32788;SDS011;19141;48.980;8.410;2022-10-17T06:49:08;7.68;;;2.67;;
32788;SDS011;19141;48.980;8.410;2022-10-17T06:51:46;4.25;;;2.88;;
32788;SDS011;19141;48.980;8.410;2022-10-17T06:54:13;9.43;;;2.83;;
32788;SDS011;19141;48.980;8.410;2022-10-17T06:56:48;4.47;;;2.58;;
32788;SDS011;19141;48.980;8.410;2022-10-17T06:59:26;5.03;;;2.75;;
32788;SDS011;19141;48.980;8.410;2022-10-17T07:01:59;7.28;;;2.72;;
32788;SDS011;19141;48.980;8.410;2022-10-17T07:04:26;5.40;;;2.40;;
32788;SDS011;19141;48.980;8.410;2022-10-17T07:06:51;7.90;;;2.40;;
32788;SDS011;19141;48.980;8.410;2022-10-17T07:09:20;5.15;;;2.63;;
32788;SDS011;19141;48.980;8.410;2022-10-17T07:11:47;4.75;;;3.03;;
32788;SDS011;19141;48.980;8.410;2022-10-17T07:14:16;3.58;;;2.55;;
32788;SDS011;19141;48.980;8.410;2022-10-17T07:16:41;3.72;;;2.88;;
32788;SDS011;19141;48.980;8.410;2022-10-17T07:19:14;4.32;;;2.60;;
32788;SDS011;19141;48.980;8.410;2022-10-17T07:21:39;3.53;;;2.75;;
32788;SDS011;19141;48.980;8.410;2022-10-17T07:24:06;6.53;;;3.03;;
32788;SDS011;19141;48.980;8.410;2022-10-17T07:26:32;3.92;;;2.85;;
32788;SDS011;19141;48.980;8.410;2022-10-17T07:28:59;5.97;;;2.45;;
32788;SDS011;19141;48.980;8.410;2022-10-17T07:31:32;4.25;;;2.50;;
32788;SDS011;19141;48.980;8.410;2022-10-17T07:33:58;4.40;;;2.53;;
32788;SDS011;19141;48.980;8.410;2022-10-17T07:36:24;3.37;;;2.67;;
32788;SDS011;19141;48.980;8.410;2022-10-17T07:38:50;4.25;;;2.67;;
32788;SDS011;19141;48.980;8.410;2022-10-17T07:41:17;3.95;;;2.53;;
32788;SDS011;19141;48.980;8.410;2022-10-17T07:43:44;4.65;;;2.65;;
32788;SDS011;19141;48.980;8.410;2022-10-17T07:46:10;3.80;;;2.78;;
32788;SDS011;19141;48.980;8.410;2022-10-17T07:48:38;3.97;;;2.53;;
32788;SDS011;19141;48.980;8.410;2022-10-17T07:51:05;4.25;;;2.75;;
32788;SDS011;19141;48.980;8.410;2022-10-17T07:53:35;3.38;;;2.35;;
32788;SDS011;19141;48.980;8.410;2022-10-17T07:56:07;5.13;;;3.33;;
32788;SDS011;19141;48.980;8.410;2022-10-17T07:58:34;6.72;;;2.58;;
32788;SDS011;19141;48.980;8.410;2022-10-17T08:01:04;6.05;;;2.67;;
32788;SDS011;19141;48.980;8.410;2022-10-17T08:03:32;4.82;;;2.72;;
32788;SDS011;19141;48.980;8.410;2022-10-17T08:05:57;5.93;;;2.80;;
32788;SDS011;19141;48.980;8.410;2022-10-17T08:08:24;3.03;;;2.20;;
32788;SDS011;19141;48.980;8.410;2022-10-17T08:10:50;3.60;;;2.30;;
32788;SDS011;19141;48.980;8.410;2022-10-17T08:13:16;3.40;;;2.40;;
32788;SDS011;19141;48.980;8.410;2022-10-17T08:15:41;5.47;;;2.70;;
32788;SDS011;19141;48.980;8.410;2022-10-17T08:18:07;3.95;;;2.33;;
32788;SDS011;19141;48.980;8.410;2022-10-17T08:20:32;4.35;;;2.40;;
32788;SDS011;19141;48.980;8.410;2022-10-17T08:22:58;4.57;;;2.40;;
32788;SDS011;19141;48.980;8.410;2022-10-17T08:25:23;7.22;;;2.88;;
32788;SDS011;19141;48.980;8.410;2022-10-17T08:27:49;6.40;;;2.63;;
32788;SDS011;19141;48.980;8.410;2022-10-17T08:30:14;3.33;;;2.00;;
32788;SDS011;19141;48.980;8.410;2022-10-17T08:32:40;4.50;;;2.10;;
32788;SDS011;19141;48.980;8.410;2022-10-17T08:35:06;2.33;;;1.98;;
32788;SDS011;19141;48.980;8.410;2022-10-17T08:37:32;6.50;;;2.30;;
32788;SDS011;19141;48.980;8.410;2022-10-17T08:39:57;3.55;;;2.15;;
32788;SDS011;19141;48.980;8.410;2022-10-17T08:47:49;2.80;;;1.73;;
32788;SDS011;19141;48.980;8.410;2022-10-17T08:53:30;2.22;;;1.80;;
32788;SDS011;19141;48.980;8.410;2022-10-17T08:55:48;3.28;;;2.20;;
32788;SDS011;19141;48.980;8.410;2022-10-17T09:00:49;3.90;;;2.22;;
32788;SDS011;19141;48.980;8.410;2022-10-17T09:06:20;2.95;;;2.20;;
32788;SDS011;19141;48.980;8.410;2022-10-17T09:20:48;1.73;;;1.50;;
32788;SDS011;19141;48.980;8.410;2022-10-17T09:23:20;2.13;;;1.67;;
32788;SDS011;19141;48.980;8.410;2022-10-17T09:25:49;2.70;;;1.83;;
32788;SDS011;19141;48.980;8.410;2022-10-17T09:28:22;2.20;;;1.75;;
32788;SDS011;19141;48.980;8.410;2022-10-17T09:30:58;7.78;;;2.03;;
32788;SDS011;19141;48.980;8.410;2022-10-17T09:33:25;2.22;;;1.80;;
32788;SDS011;19141;48.980;8.410;2022-10-17T09:36:18;2.20;;;1.48;;
32788;SDS011;19141;48.980;8.410;2022-10-17T09:38:47;2.33;;;1.55;;
32788;SDS011;19141;48.980;8.410;2022-10-17T09:41:23;3.00;;;1.63;;
32788;SDS011;19141;48.980;8.410;2022-10-17T09:43:55;3.33;;;1.85;;
32788;SDS011;19141;48.980;8.410;2022-10-17T09:46:31;4.80;;;1.67;;
32788;SDS011;19141;48.980;8.410;2022-10-17T09:49:02;1.77;;;1.40;;
32788;SDS011;19141;48.980;8.410;2022-10-17T09:51:33;2.50;;;1.30;;
32788;SDS011;19141;48.980;8.410;2022-10-17T09:54:02;2.47;;;1.50;;
32788;SDS011;19141;48.980;8.410;2022-10-17T09:56:52;1.40;;;1.30;;
32788;SDS011;19141;48.980;8.410;2022-10-17T09:59:29;2.17;;;1.20;;
32788;SDS011;19141;48.980;8.410;2022-10-17T10:07:20;1.65;;;1.40;;
32788;SDS011;19141;48.980;8.410;2022-10-17T10:09:47;3.22;;;1.52;;
32788;SDS011;19141;48.980;8.410;2022-10-17T10:12:18;1.98;;;1.00;;
32788;SDS011;19141;48.980;8.410;2022-10-17T10:14:43;1.80;;;1.27;;
32788;SDS011;19141;48.980;8.410;2022-10-17T10:19:59;1.50;;;1.20;;
32788;SDS011;19141;48.980;8.410;2022-10-17T10:22:25;1.70;;;1.10;;
32788;SDS011;19141;48.980;8.410;2022-10-17T10:27:34;1.92;;;1.30;;
32788;SDS011;19141;48.980;8.410;2022-10-17T10:30:01;1.52;;;1.15;;
32788;SDS011;19141;48.980;8.410;2022-10-17T10:32:28;2.00;;;1.50;;
32788;SDS011;19141;48.980;8.410;2022-10-17T10:35:05;1.98;;;1.42;;
32788;SDS011;19141;48.980;8.410;2022-10-17T10:37:35;3.72;;;1.58;;
32788;SDS011;19141;48.980;8.410;2022-10-17T10:42:32;2.22;;;1.40;;
32788;SDS011;19141;48.980;8.410;2022-10-17T10:45:04;1.95;;;1.40;;
32788;SDS011;19141;48.980;8.410;2022-10-17T10:47:50;2.38;;;1.20;;
32788;SDS011;19141;48.980;8.410;2022-10-17T10:55:34;2.13;;;1.40;;
32788;SDS011;19141;48.980;8.410;2022-10-17T10:58:08;2.97;;;1.67;;
32788;SDS011;19141;48.980;8.410;2022-10-17T11:03:34;1.50;;;1.30;;
32788;SDS011;19141;48.980;8.410;2022-10-17T11:06:12;1.65;;;1.42;;
32788;SDS011;19141;48.980;8.410;2022-10-17T11:11:36;3.08;;;1.65;;
32788;SDS011;19141;48.980;8.410;2022-10-17T11:14:16;2.78;;;1.50;;
32788;SDS011;19141;48.980;8.410;2022-10-17T11:16:47;2.33;;;2.10;;
32788;SDS011;19141;48.980;8.410;2022-10-17T11:19:23;2.10;;;1.50;;
32788;SDS011;19141;48.980;8.410;2022-10-17T11:22:04;2.13;;;1.48;;
32788;SDS011;19141;48.980;8.410;2022-10-17T11:24:41;2.03;;;1.38;;
32788;SDS011;19141;48.980;8.410;2022-10-17T11:27:11;4.35;;;1.88;;
32788;SDS011;19141;48.980;8.410;2022-10-17T11:29:37;4.80;;;1.52;;
32788;SDS011;19141;48.980;8.410;2022-10-17T11:32:12;3.53;;;1.50;;
32788;SDS011;19141;48.980;8.410;2022-10-17T11:34:49;2.90;;;1.70;;
32788;SDS011;19141;48.980;8.410;2022-10-17T11:37:22;2.63;;;1.52;;
32788;SDS011;19141;48.980;8.410;2022-10-17T11:40:29;3.15;;;1.80;;
32788;SDS011;19141;48.980;8.410;2022-10-17T11:45:35;1.60;;;1.40;;
32788;SDS011;19141;48.980;8.410;2022-10-17T11:48:16;3.58;;;1.50;;
32788;SDS011;19141;48.980;8.410;2022-10-17T11:50:48;2.78;;;1.95;;
32788;SDS011;19141;48.980;8.410;2022-10-17T11:53:23;2.42;;;1.70;;
32788;SDS011;19141;48.980;8.410;2022-10-17T11:55:53;4.53;;;1.75;;
32788;SDS011;19141;48.980;8.410;2022-10-17T12:01:08;4.45;;;1.70;;
32788;SDS011;19141;48.980;8.410;2022-10-17T12:17:00;1.67;;;1.33;;
32788;SDS011;19141;48.980;8.410;2022-10-17T12:19:30;2.17;;;1.60;;
32788;SDS011;19141;48.980;8.410;2022-10-17T12:22:17;3.70;;;1.90;;
32788;SDS011;19141;48.980;8.410;2022-10-17T12:24:58;2.75;;;1.60;;
32788;SDS011;19141;48.980;8.410;2022-10-17T12:27:38;4.85;;;1.83;;
32788;SDS011;19141;48.980;8.410;2022-10-17T12:32:53;2.38;;;1.63;;
32788;SDS011;19141;48.980;8.410;2022-10-17T12:35:38;4.43;;;1.63;;
32788;SDS011;19141;48.980;8.410;2022-10-17T12:45:52;3.28;;;1.45;;
32788;SDS011;19141;48.980;8.410;2022-10-17T12:56:45;4.40;;;2.17;;
32788;SDS011;19141;48.980;8.410;2022-10-17T13:01:53;6.25;;;1.83;;
32788;SDS011;19141;48.980;8.410;2022-10-17T13:04:21;2.65;;;1.70;;
32788;SDS011;19141;48.980;8.410;2022-10-17T13:06:48;3.72;;;2.28;;
32788;SDS011;19141;48.980;8.410;2022-10-17T13:09:28;2.88;;;2.03;;
32788;SDS011;19141;48.980;8.410;2022-10-17T13:11:57;2.60;;;1.95;;
32788;SDS011;19141;48.980;8.410;2022-10-17T13:14:25;4.38;;;1.85;;
32788;SDS011;19141;48.980;8.410;2022-10-17T13:16:52;2.97;;;2.03;;
32788;SDS011;19141;48.980;8.410;2022-10-17T13:19:21;4.18;;;2.45;;
32788;SDS011;19141;48.980;8.410;2022-10-17T13:21:49;4.43;;;1.90;;
32788;SDS011;19141;48.980;8.410;2022-10-17T13:24:49;2.75;;;2.55;;
32788;SDS011;19141;48.980;8.410;2022-10-17T13:29:47;6.50;;;2.03;;
32788;SDS011;19141;48.980;8.410;2022-10-17T13:32:13;3.78;;;1.88;;
32788;SDS011;19141;48.980;8.410;2022-10-17T13:34:38;3.85;;;2.13;;
32788;SDS011;19141;48.980;8.410;2022-10-17T13:37:04;4.10;;;1.85;;
32788;SDS011;19141;48.980;8.410;2022-10-17T13:39:41;2.40;;;1.92;;
32788;SDS011;19141;48.980;8.410;2022-10-17T13:42:21;2.70;;;1.55;;
32788;SDS011;19141;48.980;8.410;2022-10-17T13:44:49;2.08;;;1.80;;
32788;SDS011;19141;48.980;8.410;2022-10-17T13:47:19;3.63;;;1.90;;
32788;SDS011;19141;48.980;8.410;2022-10-17T13:49:46;3.15;;;2.10;;
32788;SDS011;19141;48.980;8.410;2022-10-17T13:52:14;4.20;;;1.75;;
32788;SDS011;19141;48.980;8.410;2022-10-17T13:54:44;5.22;;;1.88;;
32788;SDS011;19141;48.980;8.410;2022-10-17T13:59:52;6.20;;;2.60;;
32788;SDS011;19141;48.980;8.410;2022-10-17T14:02:27;4.47;;;2.10;;
32788;SDS011;19141;48.980;8.410;2022-10-17T14:07:43;3.22;;;2.10;;
32788;SDS011;19141;48.980;8.410;2022-10-17T14:12:51;3.03;;;1.92;;
32788;SDS011;19141;48.980;8.410;2022-10-17T14:15:18;4.97;;;2.30;;
32788;SDS011;19141;48.980;8.410;2022-10-17T14:17:53;3.10;;;1.98;;
32788;SDS011;19141;48.980;8.410;2022-10-17T14:20:21;5.18;;;2.00;;
32788;SDS011;19141;48.980;8.410;2022-10-17T14:22:47;3.35;;;2.13;;
32788;SDS011;19141;48.980;8.410;2022-10-17T14:25:29;3.03;;;2.15;;
32788;SDS011;19141;48.980;8.410;2022-10-17T14:28:00;4.43;;;2.55;;
32788;SDS011;19141;48.980;8.410;2022-10-17T14:30:36;4.78;;;2.10;;
32788;SDS011;19141;48.980;8.410;2022-10-17T14:33:11;3.78;;;2.53;;
32788;SDS011;19141;48.980;8.410;2022-10-17T14:35:48;3.42;;;2.30;;
32788;SDS011;19141;48.980;8.410;2022-10-17T14:38:18;3.80;;;1.90;;
32788;SDS011;19141;48.980;8.410;2022-10-17T14:41:05;5.28;;;2.30;;
32788;SDS011;19141;48.980;8.410;2022-10-17T14:43:37;3.38;;;2.17;;
32788;SDS011;19141;48.980;8.410;2022-10-17T14:46:03;4.68;;;2.00;;
32788;SDS011;19141;48.980;8.410;2022-10-17T14:48:29;3.97;;;1.98;;
32788;SDS011;19141;48.980;8.410;2022-10-17T14:51:05;4.10;;;2.28;;
32788;SDS011;19141;48.980;8.410;2022-10-17T14:53:33;3.17;;;2.00;;
32788;SDS011;19141;48.980;8.410;2022-10-17T14:56:00;6.93;;;2.50;;
32788;SDS011;19141;48.980;8.410;2022-10-17T14:58:30;3.08;;;1.73;;
32788;SDS011;19141;48.980;8.410;2022-10-17T15:00:57;4.15;;;2.17;;
32788;SDS011;19141;48.980;8.410;2022-10-17T15:03:24;4.00;;;2.13;;
32788;SDS011;19141;48.980;8.410;2022-10-17T15:05:50;6.38;;;2.30;;
32788;SDS011;19141;48.980;8.410;2022-10-17T15:08:22;3.20;;;1.90;;
32788;SDS011;19141;48.980;8.410;2022-10-17T15:10:48;4.43;;;2.17;;
32788;SDS011;19141;48.980;8.410;2022-10-17T15:13:14;3.90;;;2.10;;
32788;SDS011;19141;48.980;8.410;2022-10-17T15:15:40;3.00;;;2.00;;
32788;SDS011;19141;48.980;8.410;2022-10-17T15:18:09;2.17;;;1.77;;
32788;SDS011;19141;48.980;8.410;2022-10-17T15:20:36;3.22;;;1.85;;
32788;SDS011;19141;48.980;8.410;2022-10-17T15:23:02;3.10;;;2.17;;
32788;SDS011;19141;48.980;8.410;2022-10-17T15:25:28;6.20;;;3.00;;
32788;SDS011;19141;48.980;8.410;2022-10-17T15:27:54;4.45;;;2.53;;
32788;SDS011;19141;48.980;8.410;2022-10-17T15:30:22;4.43;;;2.30;;
32788;SDS011;19141;48.980;8.410;2022-10-17T15:32:56;6.30;;;2.45;;
32788;SDS011;19141;48.980;8.410;2022-10-17T15:35:22;5.53;;;2.70;;
32788;SDS011;19141;48.980;8.410;2022-10-17T15:37:47;9.05;;;3.40;;
32788;SDS011;19141;48.980;8.410;2022-10-17T15:40:23;4.65;;;2.42;;
32788;SDS011;19141;48.980;8.410;2022-10-17T15:42:53;6.03;;;2.42;;
32788;SDS011;19141;48.980;8.410;2022-10-17T15:45:18;3.60;;;2.38;;
32788;SDS011;19141;48.980;8.410;2022-10-17T15:50:18;2.85;;;2.13;;
32788;SDS011;19141;48.980;8.410;2022-10-17T15:52:45;5.50;;;2.92;;
32788;SDS011;19141;48.980;8.410;2022-10-17T15:55:13;4.95;;;2.90;;
32788;SDS011;19141;48.980;8.410;2022-10-17T15:57:39;7.57;;;3.80;;
32788;SDS011;19141;48.980;8.410;2022-10-17T16:00:10;7.28;;;4.15;;
32788;SDS011;19141;48.980;8.410;2022-10-17T16:02:41;6.22;;;3.35;;
32788;SDS011;19141;48.980;8.410;2022-10-17T16:05:15;8.13;;;4.15;;
32788;SDS011;19141;48.980;8.410;2022-10-17T16:07:42;8.45;;;4.32;;
32788;SDS011;19141;48.980;8.410;2022-10-17T16:10:10;7.25;;;4.25;;
32788;SDS011;19141;48.980;8.410;2022-10-17T16:12:36;6.22;;;4.05;;
32788;SDS011;19141;48.980;8.410;2022-10-17T16:15:06;7.72;;;4.35;;
32788;SDS011;19141;48.980;8.410;2022-10-17T16:17:38;8.75;;;4.07;;
32788;SDS011;19141;48.980;8.410;2022-10-17T16:20:04;10.65;;;3.70;;
32788;SDS011;19141;48.980;8.410;2022-10-17T16:22:30;8.27;;;3.58;;
32788;SDS011;19141;48.980;8.410;2022-10-17T16:25:00;7.32;;;3.47;;
32788;SDS011;19141;48.980;8.410;2022-10-17T16:27:33;7.32;;;3.58;;
32788;SDS011;19141;48.980;8.410;2022-10-17T16:30:02;5.78;;;3.42;;
32788;SDS011;19141;48.980;8.410;2022-10-17T16:32:29;7.10;;;3.42;;
32788;SDS011;19141;48.980;8.410;2022-10-17T16:34:55;6.15;;;3.40;;
32788;SDS011;19141;48.980;8.410;2022-10-17T16:37:20;6.55;;;3.10;;
32788;SDS011;19141;48.980;8.410;2022-10-17T16:39:45;5.47;;;2.75;;
32788;SDS011;19141;48.980;8.410;2022-10-17T16:42:16;8.05;;;2.70;;
32788;SDS011;19141;48.980;8.410;2022-10-17T16:44:42;4.07;;;2.40;;
32788;SDS011;19141;48.980;8.410;2022-10-17T16:47:08;7.05;;;2.75;;
32788;SDS011;19141;48.980;8.410;2022-10-17T16:49:34;4.50;;;2.42;;
32788;SDS011;19141;48.980;8.410;2022-10-17T16:51:59;6.35;;;2.88;;
32788;SDS011;19141;48.980;8.410;2022-10-17T16:54:24;7.38;;;2.83;;
32788;SDS011;19141;48.980;8.410;2022-10-17T16:56:50;3.58;;;2.47;;
32788;SDS011;19141;48.980;8.410;2022-10-17T16:59:15;7.57;;;3.33;;
32788;SDS011;19141;48.980;8.410;2022-10-17T17:01:40;4.50;;;2.70;;
32788;SDS011;19141;48.980;8.410;2022-10-17T17:04:06;4.93;;;2.40;;
32788;SDS011;19141;48.980;8.410;2022-10-17T17:06:33;4.00;;;2.13;;
32788;SDS011;19141;48.980;8.410;2022-10-17T17:08:59;3.22;;;2.03;;
32788;SDS011;19141;48.980;8.410;2022-10-17T17:11:25;2.65;;;2.15;;
32788;SDS011;19141;48.980;8.410;2022-10-17T17:16:22;3.47;;;1.92;;
32788;SDS011;19141;48.980;8.410;2022-10-17T17:18:52;6.85;;;2.30;;
32788;SDS011;19141;48.980;8.410;2022-10-17T17:21:22;7.90;;;1.95;;
32788;SDS011;19141;48.980;8.410;2022-10-17T17:23:48;4.20;;;2.40;;
32788;SDS011;19141;48.980;8.410;2022-10-17T17:26:14;7.75;;;2.30;;
32788;SDS011;19141;48.980;8.410;2022-10-17T17:28:42;5.57;;;2.72;;
32788;SDS011;19141;48.980;8.410;2022-10-17T17:31:09;4.85;;;3.30;;
32788;SDS011;19141;48.980;8.410;2022-10-17T17:33:39;7.00;;;3.75;;
32788;SDS011;19141;48.980;8.410;2022-10-17T17:36:06;6.17;;;3.20;;
32788;SDS011;19141;48.980;8.410;2022-10-17T17:38:33;4.65;;;2.97;;
32788;SDS011;19141;48.980;8.410;2022-10-17T17:40:59;8.57;;;2.63;;
32788;SDS011;19141;48.980;8.410;2022-10-17T17:43:26;3.75;;;2.45;;
32788;SDS011;19141;48.980;8.410;2022-10-17T17:45:51;4.43;;;2.40;;
32788;SDS011;19141;48.980;8.410;2022-10-17T17:48:17;4.68;;;2.53;;
32788;SDS011;19141;48.980;8.410;2022-10-17T17:50:43;3.45;;;2.40;;
32788;SDS011;19141;48.980;8.410;2022-10-17T17:53:09;4.68;;;2.30;;
32788;SDS011;19141;48.980;8.410;2022-10-17T17:55:36;4.70;;;2.60;;
32788;SDS011;19141;48.980;8.410;2022-10-17T17:58:02;4.25;;;2.00;;
32788;SDS011;19141;48.980;8.410;2022-10-17T18:00:28;6.15;;;2.25;;
32788;SDS011;19141;48.980;8.410;2022-10-17T18:02:54;9.95;;;2.72;;
32788;SDS011;19141;48.980;8.410;2022-10-17T18:05:20;4.38;;;3.08;;
32788;SDS011;19141;48.980;8.410;2022-10-17T18:07:45;13.70;;;3.20;;
32788;SDS011;19141;48.980;8.410;2022-10-17T18:10:11;3.80;;;2.58;;
32788;SDS011;19141;48.980;8.410;2022-10-17T18:12:36;5.57;;;2.60;;
32788;SDS011;19141;48.980;8.410;2022-10-17T18:15:02;4.18;;;2.42;;
32788;SDS011;19141;48.980;8.410;2022-10-17T18:17:28;5.97;;;3.00;;
32788;SDS011;19141;48.980;8.410;2022-10-17T18:19:54;6.20;;;2.60;;
32788;SDS011;19141;48.980;8.410;2022-10-17T18:22:19;9.13;;;2.58;;
32788;SDS011;19141;48.980;8.410;2022-10-17T18:24:47;5.70;;;3.78;;
32788;SDS011;19141;48.980;8.410;2022-10-17T18:27:12;4.68;;;2.72;;
32788;SDS011;19141;48.980;8.410;2022-10-17T18:29:40;2.88;;;1.90;;
32788;SDS011;19141;48.980;8.410;2022-10-17T18:32:12;5.03;;;2.50;;
32788;SDS011;19141;48.980;8.410;2022-10-17T18:34:38;7.43;;;3.30;;
32788;SDS011;19141;48.980;8.410;2022-10-17T18:37:04;3.85;;;2.53;;
32788;SDS011;19141;48.980;8.410;2022-10-17T18:39:29;6.05;;;2.83;;
32788;SDS011;19141;48.980;8.410;2022-10-17T18:41:55;3.83;;;2.58;;
32788;SDS011;19141;48.980;8.410;2022-10-17T18:44:20;8.02;;;4.07;;
32788;SDS011;19141;48.980;8.410;2022-10-17T18:46:46;7.28;;;4.45;;
32788;SDS011;19141;48.980;8.410;2022-10-17T18:49:12;6.75;;;4.25;;
32788;SDS011;19141;48.980;8.410;2022-10-17T18:51:40;8.45;;;3.83;;
32788;SDS011;19141;48.980;8.410;2022-10-17T18:54:10;5.63;;;2.92;;
32788;SDS011;19141;48.980;8.410;2022-10-17T18:56:37;4.85;;;3.40;;
32788;SDS011;19141;48.980;8.410;2022-10-17T18:59:02;9.48;;;3.20;;
32788;SDS011;19141;48.980;8.410;2022-10-17T19:01:28;5.32;;;3.33;;
32788;SDS011;19141;48.980;8.410;2022-10-17T19:03:55;4.15;;;2.45;;
32788;SDS011;19141;48.980;8.410;2022-10-17T19:06:23;3.97;;;2.45;;
32788;SDS011;19141;48.980;8.410;2022-10-17T19:08:51;8.05;;;2.55;;
32788;SDS011;19141;48.980;8.410;2022-10-17T19:11:23;5.18;;;2.45;;
32788;SDS011;19141;48.980;8.410;2022-10-17T19:13:50;2.85;;;2.13;;
32788;SDS011;19141;48.980;8.410;2022-10-17T19:16:20;7.75;;;2.28;;
32788;SDS011;19141;48.980;8.410;2022-10-17T19:18:55;4.78;;;2.20;;
32788;SDS011;19141;48.980;8.410;2022-10-17T19:21:41;6.10;;;2.88;;
32788;SDS011;19141;48.980;8.410;2022-10-17T19:24:09;4.47;;;2.92;;
32788;SDS011;19141;48.980;8.410;2022-10-17T19:26:37;5.07;;;2.90;;
32788;SDS011;19141;48.980;8.410;2022-10-17T19:29:04;5.78;;;2.70;;
32788;SDS011;19141;48.980;8.410;2022-10-17T19:31:30;4.78;;;2.40;;
32788;SDS011;19141;48.980;8.410;2022-10-17T19:33:57;4.17;;;2.40;;
32788;SDS011;19141;48.980;8.410;2022-10-17T19:36:23;5.78;;;3.08;;
32788;SDS011;19141;48.980;8.410;2022-10-17T19:38:52;2.92;;;2.33;;
32788;SDS011;19141;48.980;8.410;2022-10-17T19:41:18;4.60;;;3.00;;
32788;SDS011;19141;48.980;8.410;2022-10-17T19:43:44;5.78;;;3.60;;
32788;SDS011;19141;48.980;8.410;2022-10-17T19:46:10;3.65;;;2.33;;
32788;SDS011;19141;48.980;8.410;2022-10-17T19:48:38;3.63;;;2.72;;
32788;SDS011;19141;48.980;8.410;2022-10-17T19:51:05;7.55;;;2.60;;
32788;SDS011;19141;48.980;8.410;2022-10-17T19:53:32;5.45;;;2.50;;
32788;SDS011;19141;48.980;8.410;2022-10-17T19:55:58;5.05;;;2.20;;
32788;SDS011;19141;48.980;8.410;2022-10-17T19:58:24;3.20;;;2.53;;
32788;SDS011;19141;48.980;8.410;2022-10-17T20:00:51;4.32;;;2.50;;
32788;SDS011;19141;48.980;8.410;2022-10-17T20:03:21;5.03;;;2.20;;
32788;SDS011;19141;48.980;8.410;2022-10-17T20:05:48;4.40;;;2.15;;
32788;SDS011;19141;48.980;8.410;2022-10-17T20:08:14;6.03;;;2.88;;
32788;SDS011;19141;48.980;8.410;2022-10-17T20:10:40;2.17;;;1.98;;
32788;SDS011;19141;48.980;8.410;2022-10-17T20:13:06;5.75;;;2.22;;
32788;SDS011;19141;48.980;8.410;2022-10-17T20:15:32;5.50;;;3.25;;
32788;SDS011;19141;48.980;8.410;2022-10-17T20:17:58;4.03;;;2.55;;
32788;SDS011;19141;48.980;8.410;2022-10-17T20:20:23;5.57;;;3.30;;
32788;SDS011;19141;48.980;8.410;2022-10-17T20:22:49;9.90;;;2.30;;
32788;SDS011;19141;48.980;8.410;2022-10-17T20:25:14;6.22;;;2.60;;
32788;SDS011;19141;48.980;8.410;2022-10-17T20:27:40;2.85;;;2.38;;
32788;SDS011;19141;48.980;8.410;2022-10-17T20:30:06;3.83;;;2.45;;
32788;SDS011;19141;48.980;8.410;2022-10-17T20:32:32;3.63;;;2.50;;
32788;SDS011;19141;48.980;8.410;2022-10-17T20:34:59;6.22;;;2.40;;
32788;SDS011;19141;48.980;8.410;2022-10-17T20:37:25;2.72;;;1.95;;
32788;SDS011;19141;48.980;8.410;2022-10-17T20:39:50;3.85;;;2.38;;
32788;SDS011;19141;48.980;8.410;2022-10-17T20:42:15;3.50;;;2.03;;
32788;SDS011;19141;48.980;8.410;2022-10-17T20:44:41;3.17;;;2.40;;
32788;SDS011;19141;48.980;8.410;2022-10-17T20:47:06;4.38;;;2.40;;
32788;SDS011;19141;48.980;8.410;2022-10-17T20:49:32;3.95;;;2.38;;
32788;SDS011;19141;48.980;8.410;2022-10-17T20:51:57;7.18;;;3.17;;
32788;SDS011;19141;48.980;8.410;2022-10-17T20:54:24;4.45;;;2.47;;
32788;SDS011;19141;48.980;8.410;2022-10-17T20:56:51;6.38;;;2.63;;
32788;SDS011;19141;48.980;8.410;2022-10-17T20:59:17;6.07;;;2.78;;
32788;SDS011;19141;48.980;8.410;2022-10-17T21:01:43;3.65;;;2.47;;
32788;SDS011;19141;48.980;8.410;2022-10-17T21:04:09;4.10;;;2.42;;
32788;SDS011;19141;48.980;8.410;2022-10-17T21:06:35;6.03;;;2.38;;
32788;SDS011;19141;48.980;8.410;2022-10-17T21:09:01;3.67;;;2.58;;
32788;SDS011;19141;48.980;8.410;2022-10-17T21:11:28;3.53;;;2.40;;